Extreme weather reports worldwide

Thunderstorm

Station
 
Location
 
Name
 
Wind
Knots
Gust
Knots
Vis
SM
Temp/Dew
C
Baro
inHg
METAR
 
BHI SAZB Bahia Blanca, AR Comandante Espora Airport 17 38 6.21 24/19 29.70 SAZB 290354Z 29017G38KT 250V350 9999 TS FEW040CB 24/19 Q1006
LCA LCLK Larnarca, CY Larnaca International Airport 13 6.21 18/14 29.79 LCLK 290430Z 35013KT 9999 -TSRA FEW035CB BKN070 18/14 Q1009 NOSIG
TNE RJFG Tanegashima, JP New Tanegashima Airport 13 0.06 22/22 29.85 RJFG 290438Z 28013KT 0100 R31/0325V0500D -TSRA FG FEW000 SCT001 BKN002 FEW020CB 22/22 Q1011 RMK 1ST000 3ST001 5ST002 1CB020 A2988 FBL TS 30KM SW MOV NE
IRJ SANL La Rioja, AR Capitan V A Almonacid Airport 12 6.21 32/11 29.73 SANL 290430Z 18012KT 9999 TS FEW045 SCT100CB 32/11 Q1007
CNF SBCF Belo Horizonte, BR Tancredo Neves International Airport 11 2.49 17/15 29.82 SBCF 290500Z 05011KT 4000 -TSRA SCT045 FEW050CB 17/15 Q1010 RERA

Station
 
Location
 
Name
 
Wind
Knots
Gust
Knots
Vis
SM
Temp/Dew
C
Baro
inHg
METAR
 
PMW SBPJ Palmas, BR Brigadeiro Lysias Rodrigues Airport 8 3.11 23/23 29.76 SBPJ 290400Z 36008KT 330V030 5000 TSRA SCT007 SCT011 FEW030CB OVC070 23/23 Q1008
FIH FZAA Kinshasa, CD Ndjili International Airport 8 2.49 22/20 29.82 FZAA 290400Z 26008KT 4000 TSRA SCT014 FEW028CB BKN080 22/20 Q1010 BECMG 2500
PLU SBBH Belo Horizonte, BR Pampulha - Carlos Drummond de Andrade Airport 6 3.11 18/16 29.85 SBBH 290400Z 04006KT 5000 -TSRA BKN025 FEW030CB OVC080 18/16 Q1011
STM SBSN Santarém, BR Maestro Wilson Fonseca Airport 5 6.21 25/24 29.70 SBSN 290500Z 30005KT 9999 -TSRA FEW015 FEW023CB SCT100 25/24 Q1006
SDK WBKS Sandakan, MY Sandakan Airport 4 6.21 31/26 29.79 WBKS 290400Z VRB04KT 9999 TS FEW015 FEW016CB 31/26 Q1009
EJH OEWJ Al Wajh, SA Al Wajh Domestic Airport 4 5.59 24/20 29.76 OEWJ 290400Z 14004KT 9000 TSRA FEW035CB BKN040 24/20 Q1008 NOSIG
AQJ OJAQ Aqaba, JO Aqaba King Hussein International Airport 4 3.11 17/9 29.79 OJAQ 290500Z 34004KT 5000 TSRA SCT030CB SCT035 SCT100 17/09 Q1009
LOS DNMM Lagos, NG Murtala Muhammed International Airport 4 6.21 24/24 29.76 DNMM 290400Z 01004KT 9999 TS FEW008 FEW018CB 24/24 Q1008 NOSIG
BVB SBBV Boa Vista, BR Atlas Brasil Cantanhede Airport 3 6.21 24/22 29.76 SBBV 290500Z 04003KT 9999 VCTS FEW006 FEW045CB BKN100 24/22 Q1008
MOC SBMK Montes Claros, BR Mário Ribeiro Airport 3 6.21 22/19 29.76 SBMK 290400Z 05003KT 9999 VCTS FEW045CB SCT090 22/19 Q1008
LBV FOOL Libreville, GA Libreville Leon M'ba International Airport 2 3.73 25/25 29.76 FOOL 290400Z VRB02KT 6000 -TSRA SCT010 FEW020CB BKN030 25/25 Q1008 NOSIG
ABJ DIAP Abidjan, CI Port Bouet Airport 2 6.21 25/25 29.73 DIAP 290500Z VRB02KT 9999 TS SCT012 FEW020CB 25/25 Q1007 BECMG NSW
NPY HTMP Mpanda, TZ Mpanda Airport 0 3.11 19/18 29.97 HTMP 290400Z 00000KT 5000 TSRA BKN015 FEW016CB OVC070 19/18 Q1015
DLA FKKD Douala, CM Douala International Airport 0 6.21 25/24 29.73 FKKD 290400Z 00000KT 9999 TS BKN012 FEW015CB 25/24 Q1007 NOSIG
ADJ OJAM Amman, JO Amman-Marka International Airport 0 2.49 11/9 29.91 OJAM 290400Z 00000KT 4000 TS SCT040CB BKN080 11/09 Q1013 NOSIG